createdAt,value
2018-03-19T00:01:49.451Z,16.00
2018-03-19T00:04:16.916Z,17.13
2018-03-19T00:06:45.135Z,17.30
2018-03-19T00:09:12.596Z,15.80
2018-03-19T00:11:40.056Z,17.03
2018-03-19T00:14:07.519Z,16.27
2018-03-19T00:16:34.979Z,16.50
2018-03-19T00:19:02.425Z,16.73
2018-03-19T00:21:29.888Z,17.23
2018-03-19T00:23:57.351Z,15.97
2018-03-19T00:26:24.803Z,16.07
2018-03-19T00:28:52.258Z,15.80
2018-03-19T00:31:19.734Z,16.10
2018-03-19T00:33:47.197Z,16.37
2018-03-19T00:36:14.648Z,16.33
2018-03-19T00:38:42.106Z,15.20
2018-03-19T00:41:09.578Z,15.50
2018-03-19T00:43:37.039Z,16.03
2018-03-19T00:46:05.316Z,16.10
2018-03-19T00:48:32.783Z,16.67
2018-03-19T00:51:00.343Z,16.25
2018-03-19T00:53:27.803Z,17.63
2018-03-19T00:55:56.030Z,16.57
2018-03-19T00:58:23.515Z,16.17
2018-03-19T01:00:50.960Z,16.55
2018-03-19T01:03:18.423Z,16.53
2018-03-19T01:05:45.876Z,16.30
2018-03-19T01:08:13.342Z,15.00
2018-03-19T01:10:40.797Z,17.53
2018-03-19T01:13:08.268Z,17.20
2018-03-19T01:15:35.815Z,15.90
2018-03-19T01:18:03.280Z,16.97
2018-03-19T01:20:30.740Z,14.70
2018-03-19T01:22:58.225Z,17.80
2018-03-19T01:25:26.444Z,16.43
2018-03-19T01:27:53.920Z,16.93
2018-03-19T01:30:21.377Z,15.80
2018-03-19T01:32:48.845Z,16.53
2018-03-19T01:35:16.324Z,16.20
2018-03-19T01:37:44.560Z,17.97
2018-03-19T01:40:12.013Z,16.10
2018-03-19T01:42:39.472Z,15.60
2018-03-19T01:45:06.927Z,15.65
2018-03-19T01:47:34.394Z,16.10
2018-03-19T01:50:01.877Z,16.57
2018-03-19T01:52:41.341Z,17.03
2018-03-19T01:55:09.566Z,18.47
2018-03-19T01:57:37.053Z,16.30
2018-03-19T02:00:04.517Z,16.43
2018-03-19T02:02:32.741Z,16.47
2018-03-19T02:05:00.214Z,16.33
2018-03-19T02:07:27.688Z,17.27
2018-03-19T02:09:55.148Z,15.80
2018-03-19T02:12:22.612Z,16.40
2018-03-19T02:14:50.081Z,16.10
2018-03-19T02:17:18.305Z,16.67
2018-03-19T02:19:45.776Z,16.60
2018-03-19T02:22:13.232Z,17.47
2018-03-19T02:24:40.705Z,15.47
2018-03-19T02:27:08.152Z,17.00
2018-03-19T02:29:35.616Z,16.37
2018-03-19T02:32:03.073Z,16.93
2018-03-19T02:34:30.532Z,16.63
2018-03-19T02:36:57.986Z,17.23
2018-03-19T02:39:25.521Z,16.20
2018-03-19T02:41:52.938Z,16.30
2018-03-19T02:44:21.158Z,16.13
2018-03-19T02:46:48.629Z,17.00
2018-03-19T02:49:16.100Z,16.43
2018-03-19T02:51:43.556Z,16.20
2018-03-19T02:54:11.040Z,15.70
2018-03-19T02:56:39.269Z,17.07
2018-03-19T02:59:06.735Z,17.50
2018-03-19T03:01:34.198Z,18.50
2018-03-19T03:04:01.670Z,15.37
2018-03-19T03:06:29.137Z,15.80
2018-03-19T03:08:57.380Z,18.00
2018-03-19T03:11:24.864Z,17.90
2018-03-19T03:13:52.313Z,16.90
2018-03-19T03:16:19.783Z,16.37
2018-03-19T03:18:47.239Z,17.30
2018-03-19T03:21:15.460Z,17.97
2018-03-19T03:23:42.917Z,17.33
2018-03-19T03:26:10.382Z,15.80
2018-03-19T03:28:37.865Z,16.43
2018-03-19T03:31:05.320Z,20.13
2018-03-19T03:33:32.772Z,16.63
2018-03-19T03:36:00.240Z,15.40
2018-03-19T03:38:27.717Z,16.30
2018-03-19T03:40:55.953Z,16.27
2018-03-19T03:43:23.414Z,15.57
2018-03-19T03:45:50.893Z,15.43
2018-03-19T03:48:18.350Z,17.37
2018-03-19T03:50:45.815Z,15.90
2018-03-19T03:53:13.316Z,17.63
2018-03-19T03:55:40.774Z,18.60
2018-03-19T03:58:09.082Z,15.57
2018-03-19T04:00:36.534Z,14.97
2018-03-19T04:03:03.987Z,17.87
2018-03-19T04:05:31.449Z,16.87
2018-03-19T04:07:58.915Z,17.50
2018-03-19T04:10:26.384Z,16.43
2018-03-19T04:12:53.850Z,16.10
2018-03-19T04:15:22.091Z,17.53
2018-03-19T04:17:49.563Z,17.73
2018-03-19T04:20:17.033Z,16.23
2018-03-19T04:22:46.060Z,16.63
2018-03-19T04:25:14.280Z,15.57
2018-03-19T04:27:41.739Z,16.50
2018-03-19T04:30:09.197Z,17.15
2018-03-19T04:32:36.668Z,17.03
2018-03-19T04:35:04.132Z,17.10
2018-03-19T04:37:31.608Z,16.50
2018-03-19T04:39:59.839Z,17.37
2018-03-19T04:42:27.294Z,16.10
2018-03-19T04:44:54.749Z,17.80
2018-03-19T04:47:22.226Z,17.07
2018-03-19T04:49:49.662Z,17.67
2018-03-19T04:52:17.133Z,16.67
2018-03-19T04:54:44.609Z,19.00
2018-03-19T04:57:12.083Z,16.60
2018-03-19T04:59:40.331Z,17.50
2018-03-19T05:02:07.793Z,17.77
2018-03-19T05:04:36.013Z,17.67
2018-03-19T05:07:03.496Z,17.67
2018-03-19T05:09:30.990Z,17.30
2018-03-19T05:11:58.439Z,16.40
2018-03-19T05:14:39.653Z,16.67
2018-03-19T05:17:07.906Z,15.20
2018-03-19T05:19:36.140Z,17.27
2018-03-19T05:22:03.643Z,18.50
2018-03-19T05:24:31.108Z,16.50
2018-03-19T05:26:59.355Z,16.77
2018-03-19T05:29:26.824Z,18.30
2018-03-19T05:31:54.285Z,17.50
2018-03-19T05:34:21.772Z,17.30
2018-03-19T05:36:49.988Z,17.17
2018-03-19T05:39:17.481Z,16.30
2018-03-19T05:41:44.921Z,18.33
2018-03-19T05:44:12.384Z,17.17
2018-03-19T05:46:39.841Z,15.27
2018-03-19T05:49:07.347Z,15.97
2018-03-19T05:51:34.774Z,15.83
2018-03-19T05:54:02.255Z,16.53
2018-03-19T05:56:29.711Z,16.10
2018-03-19T05:58:57.963Z,15.97
2018-03-19T06:01:26.199Z,15.83
2018-03-19T06:03:53.683Z,14.90
2018-03-19T06:06:21.128Z,15.67
2018-03-19T06:08:48.602Z,16.17
2018-03-19T06:11:16.833Z,16.70
2018-03-19T06:13:44.302Z,15.33
2018-03-19T06:16:11.760Z,16.07
2018-03-19T06:18:40.289Z,16.90
2018-03-19T06:21:07.765Z,16.00
2018-03-19T06:23:35.222Z,16.70
2018-03-19T06:26:02.689Z,17.07
2018-03-19T06:28:30.132Z,16.10
2018-03-19T06:30:57.628Z,16.65
2018-03-19T06:33:25.081Z,15.70
2018-03-19T06:35:52.532Z,16.60
2018-03-19T06:38:20.007Z,15.87
2018-03-19T06:40:47.478Z,15.20
2018-03-19T06:43:14.947Z,15.60
2018-03-19T06:45:43.932Z,16.50
2018-03-19T06:48:12.913Z,15.77
2018-03-19T06:50:40.368Z,16.03
2018-03-19T06:53:07.827Z,16.27
2018-03-19T06:55:35.317Z,18.43
2018-03-19T06:58:02.756Z,15.87
2018-03-19T07:00:31.761Z,16.03
2018-03-19T07:03:00.109Z,17.37
2018-03-19T07:05:27.560Z,16.90
2018-03-19T07:07:55.030Z,17.63
2018-03-19T07:10:22.490Z,17.13
2018-03-19T07:12:49.961Z,18.63
2018-03-19T07:15:17.416Z,18.40
2018-03-19T07:17:44.873Z,17.47
2018-03-19T07:20:13.853Z,18.13
2018-03-19T07:22:41.380Z,15.20
2018-03-19T07:25:08.841Z,17.50
2018-03-19T07:27:36.297Z,16.43
2018-03-19T07:30:03.764Z,15.67
2018-03-19T07:32:31.231Z,18.52
2018-03-19T07:34:58.768Z,16.60
2018-03-19T07:37:26.269Z,16.47
2018-03-19T07:39:53.678Z,18.33
2018-03-19T07:42:21.136Z,17.83
2018-03-19T07:44:48.596Z,17.33
2018-03-19T07:47:16.156Z,18.80
2018-03-19T07:49:43.622Z,19.67
2018-03-19T07:52:11.097Z,17.67
2018-03-19T07:54:38.556Z,17.80
2018-03-19T07:57:06.009Z,17.50
2018-03-19T07:59:33.460Z,17.90
2018-03-19T08:02:00.925Z,16.10
2018-03-19T08:04:28.376Z,18.07
2018-03-19T08:06:55.845Z,16.73
2018-03-19T08:09:23.304Z,19.87
2018-03-19T08:11:50.759Z,18.00
2018-03-19T08:14:18.238Z,17.90
2018-03-19T08:16:45.692Z,17.63
2018-03-19T08:19:13.924Z,16.83
2018-03-19T08:21:41.372Z,17.97
2018-03-19T08:24:08.831Z,18.50
2018-03-19T08:26:36.281Z,18.23
2018-03-19T08:29:03.739Z,19.13
2018-03-19T08:31:31.200Z,18.77
2018-03-19T08:33:58.654Z,17.83
2018-03-19T08:36:26.108Z,20.70
2018-03-19T08:38:53.564Z,17.43
2018-03-19T08:41:21.040Z,18.27
2018-03-19T08:43:48.497Z,19.05
2018-03-19T08:46:15.945Z,17.70
2018-03-19T08:48:44.017Z,18.00
2018-03-19T08:51:12.161Z,17.53
2018-03-19T08:53:40.399Z,18.83
2018-03-19T08:56:07.844Z,19.27
2018-03-19T08:58:35.331Z,18.20
2018-03-19T09:01:02.791Z,18.50
2018-03-19T09:03:31.010Z,19.40
2018-03-19T09:05:58.490Z,19.30
2018-03-19T09:08:25.958Z,17.70
2018-03-19T09:10:53.417Z,18.03
2018-03-19T09:13:20.903Z,16.70
2018-03-19T09:15:49.116Z,17.37
2018-03-19T09:18:16.570Z,18.33
2018-03-19T09:20:44.041Z,16.77
2018-03-19T09:23:11.497Z,17.10
2018-03-19T09:25:38.957Z,14.97
2018-03-19T09:28:06.419Z,14.87
2018-03-19T09:30:33.872Z,15.90
2018-03-19T09:33:01.342Z,16.60
2018-03-19T09:35:28.818Z,16.03
2018-03-19T09:37:56.273Z,17.60
2018-03-19T09:40:23.829Z,16.60
2018-03-19T09:42:51.293Z,16.27
2018-03-19T09:45:18.744Z,16.60
2018-03-19T09:47:46.972Z,16.60
2018-03-19T09:50:14.428Z,15.50
2018-03-19T09:52:41.906Z,14.67
2018-03-19T09:55:09.358Z,16.17
2018-03-19T09:57:36.821Z,15.83
2018-03-19T10:00:04.341Z,17.53
2018-03-19T10:02:32.560Z,14.77
2018-03-19T10:05:00.032Z,16.67
2018-03-19T10:07:27.506Z,15.13
2018-03-19T10:09:54.999Z,15.67
2018-03-19T10:12:23.240Z,13.07
2018-03-19T10:14:50.718Z,15.07
2018-03-19T10:17:18.935Z,16.50
2018-03-19T10:19:46.381Z,15.90
2018-03-19T10:22:13.852Z,14.35
2018-03-19T10:24:41.295Z,16.67
2018-03-19T10:27:08.785Z,15.70
2018-03-19T10:29:36.239Z,16.57
2018-03-19T10:32:03.705Z,15.87
2018-03-19T10:34:31.160Z,16.60
2018-03-19T10:36:58.616Z,15.97
2018-03-19T10:39:26.063Z,16.13
2018-03-19T10:41:53.542Z,16.17
2018-03-19T10:44:22.522Z,14.43
2018-03-19T10:46:49.970Z,15.40
2018-03-19T10:49:17.472Z,17.77
2018-03-19T10:51:44.963Z,17.53
2018-03-19T10:54:13.200Z,14.57
2018-03-19T10:56:41.456Z,17.90
2018-03-19T10:59:09.047Z,14.57
2018-03-19T11:01:43.396Z,14.70
2018-03-19T11:04:10.852Z,13.67
2018-03-19T11:06:44.729Z,15.93
2018-03-19T11:09:18.755Z,16.80
2018-03-19T11:11:47.000Z,15.93
2018-03-19T11:14:15.972Z,17.13
2018-03-19T11:16:44.230Z,16.10
2018-03-19T11:19:11.676Z,15.60
2018-03-19T11:21:39.151Z,20.93
2018-03-19T11:24:06.617Z,16.20
2018-03-19T11:26:34.098Z,16.30
2018-03-19T11:29:01.546Z,17.50
2018-03-19T11:31:29.015Z,18.00
2018-03-19T11:33:57.258Z,17.27
2018-03-19T11:36:24.721Z,17.50
2018-03-19T11:38:52.180Z,15.63
2018-03-19T11:41:19.643Z,16.37
2018-03-19T11:43:47.097Z,16.63
2018-03-19T11:46:14.560Z,17.70
2018-03-19T11:48:42.037Z,18.07
2018-03-19T11:51:09.488Z,15.10
2018-03-19T11:53:36.957Z,17.10
2018-03-19T11:56:05.202Z,16.97
2018-03-19T11:58:32.679Z,17.60
2018-03-19T12:01:00.136Z,14.83
2018-03-19T12:03:27.616Z,14.98
2018-03-19T12:05:56.383Z,15.80
2018-03-19T12:08:23.849Z,16.03
2018-03-19T12:10:51.291Z,16.90
2018-03-19T12:13:18.748Z,17.30
2018-03-19T12:15:46.195Z,15.93
2018-03-19T12:18:13.660Z,15.50
2018-03-19T12:20:41.208Z,15.80
2018-03-19T12:23:08.673Z,16.52
2018-03-19T12:25:36.126Z,18.23
2018-03-19T12:28:03.613Z,16.53
2018-03-19T12:30:31.835Z,16.67
2018-03-19T12:32:59.306Z,17.80
2018-03-19T12:35:28.128Z,16.37
2018-03-19T12:37:55.564Z,16.00
2018-03-19T12:40:23.065Z,16.80
2018-03-19T12:42:51.264Z,18.00
2018-03-19T12:45:18.738Z,19.63
2018-03-19T12:47:46.193Z,16.70
2018-03-19T12:50:13.665Z,20.33
2018-03-19T12:52:41.126Z,22.00
2018-03-19T12:55:08.673Z,19.13
2018-03-19T12:57:36.155Z,18.70
2018-03-19T13:00:03.636Z,19.00
2018-03-19T13:02:31.905Z,21.23
2018-03-19T13:05:00.142Z,20.37
2018-03-19T13:07:27.594Z,19.50
2018-03-19T13:09:55.063Z,20.63
2018-03-19T13:12:22.508Z,18.20
2018-03-19T13:14:49.969Z,19.50
2018-03-19T13:17:36.905Z,18.27
2018-03-19T13:20:04.384Z,19.20
2018-03-19T13:22:32.618Z,17.83
2018-03-19T13:25:00.085Z,18.90
2018-03-19T13:27:27.528Z,18.90
2018-03-19T13:29:55.013Z,17.60
2018-03-19T13:32:22.465Z,17.03
2018-03-19T13:34:49.952Z,18.10
2018-03-19T13:37:19.101Z,18.33
2018-03-19T13:39:46.569Z,18.10
2018-03-19T13:42:14.029Z,20.10
2018-03-19T13:44:41.513Z,17.23
2018-03-19T13:47:09.748Z,16.80
2018-03-19T13:49:37.205Z,19.40
2018-03-19T13:52:04.668Z,18.93
2018-03-19T13:54:32.958Z,19.57
2018-03-19T13:57:00.441Z,18.93
2018-03-19T13:59:28.975Z,16.60
2018-03-19T14:01:56.424Z,18.57
2018-03-19T14:04:23.955Z,18.33
2018-03-19T14:06:51.370Z,18.20
2018-03-19T14:09:18.818Z,20.13
2018-03-19T14:11:46.271Z,17.80
2018-03-19T14:14:13.726Z,18.63
2018-03-19T14:16:41.183Z,18.23
2018-03-19T14:19:08.663Z,18.63
2018-03-19T14:21:36.129Z,17.77
2018-03-19T14:24:04.367Z,18.17
2018-03-19T14:26:31.822Z,19.13
2018-03-19T14:28:59.268Z,19.63
2018-03-19T14:31:26.741Z,17.07
2018-03-19T14:33:54.192Z,17.17
2018-03-19T14:36:21.770Z,16.40
2018-03-19T14:38:49.329Z,16.77
2018-03-19T14:41:16.806Z,16.70
2018-03-19T14:43:45.196Z,17.87
2018-03-19T14:46:13.460Z,17.60
2018-03-19T14:48:40.983Z,17.37
2018-03-19T14:51:08.578Z,17.40
2018-03-19T14:53:36.042Z,17.00
2018-03-19T14:56:03.512Z,16.67
2018-03-19T14:58:31.861Z,15.80
2018-03-19T15:01:00.851Z,16.17
2018-03-19T15:03:28.321Z,14.90
2018-03-19T15:05:55.785Z,15.23
2018-03-19T15:08:23.241Z,17.40
2018-03-19T15:10:51.517Z,16.70
2018-03-19T15:13:18.960Z,16.60
2018-03-19T15:15:46.421Z,16.63
2018-03-19T15:18:14.013Z,17.15
2018-03-19T15:20:42.229Z,16.20
2018-03-19T15:23:09.727Z,15.50
2018-03-19T15:25:38.021Z,17.50
2018-03-19T15:28:06.259Z,16.20
2018-03-19T15:30:33.752Z,15.37
2018-03-19T15:33:01.208Z,18.03
2018-03-19T15:35:28.946Z,15.43
2018-03-19T15:37:56.516Z,17.57
2018-03-19T15:40:24.016Z,18.35
2018-03-19T15:42:51.490Z,17.07
2018-03-19T15:45:18.954Z,17.77
2018-03-19T15:47:46.419Z,17.37
2018-03-19T15:50:13.880Z,18.70
2018-03-19T15:52:41.339Z,16.83
2018-03-19T15:55:08.805Z,17.40
2018-03-19T15:57:36.270Z,17.00
2018-03-19T16:00:03.795Z,17.10
2018-03-19T16:02:31.246Z,17.90
2018-03-19T16:04:58.701Z,16.83
2018-03-19T16:07:26.168Z,18.33
2018-03-19T16:09:53.629Z,17.37
2018-03-19T16:12:21.086Z,18.10
2018-03-19T16:14:48.610Z,17.80
2018-03-19T16:17:16.036Z,18.63
2018-03-19T16:19:44.268Z,18.07
2018-03-19T16:22:11.733Z,18.47
2018-03-19T16:24:39.195Z,17.52
2018-03-19T16:27:06.645Z,18.30
2018-03-19T16:29:34.109Z,17.50
2018-03-19T16:32:01.564Z,16.97
2018-03-19T16:34:29.057Z,18.93
2018-03-19T16:36:57.279Z,16.77
2018-03-19T16:39:24.743Z,18.13
2018-03-19T16:41:52.275Z,17.07
2018-03-19T16:44:19.739Z,16.70
2018-03-19T16:46:47.195Z,16.98
2018-03-19T16:49:14.657Z,16.20
2018-03-19T16:51:42.108Z,18.50
2018-03-19T16:54:09.593Z,26.90
2018-03-19T16:56:37.956Z,28.57
2018-03-19T16:59:05.420Z,24.80
2018-03-19T17:01:32.882Z,19.50
2018-03-19T17:04:00.349Z,25.17
2018-03-19T17:06:27.805Z,21.40
2018-03-19T17:08:55.290Z,17.17
2018-03-19T17:11:22.741Z,18.53
2018-03-19T17:13:50.230Z,16.43
2018-03-19T17:16:18.460Z,15.40
2018-03-19T17:18:45.927Z,16.43
2018-03-19T17:21:13.371Z,15.20
2018-03-19T17:23:40.834Z,14.33
2018-03-19T17:26:08.293Z,16.17
2018-03-19T17:28:35.764Z,14.10
2018-03-19T17:31:03.993Z,15.48
2018-03-19T17:33:31.456Z,14.80
2018-03-19T17:35:58.940Z,15.77
2018-03-19T17:38:26.380Z,15.23
2018-03-19T17:40:53.872Z,17.13
2018-03-19T17:43:22.817Z,15.63
2018-03-19T17:45:50.271Z,14.57
2018-03-19T17:48:17.745Z,16.93
2018-03-19T17:50:45.205Z,16.53
2018-03-19T17:53:12.676Z,15.05
2018-03-19T17:55:40.149Z,14.90
2018-03-19T17:58:07.609Z,15.30
2018-03-19T18:00:35.069Z,15.60
2018-03-19T18:03:02.526Z,15.13
2018-03-19T18:05:29.989Z,17.10
2018-03-19T18:07:58.217Z,14.40
2018-03-19T18:10:25.689Z,15.60
2018-03-19T18:12:53.138Z,18.70
2018-03-19T18:15:20.622Z,16.52
2018-03-19T18:17:48.076Z,16.27
2018-03-19T18:20:17.057Z,16.43
2018-03-19T18:22:44.520Z,16.50
2018-03-19T18:25:12.237Z,21.53
2018-03-19T18:27:39.713Z,16.27
2018-03-19T18:30:07.168Z,16.23
2018-03-19T18:32:35.390Z,16.90
2018-03-19T18:35:02.847Z,17.93
2018-03-19T18:37:30.331Z,16.90
2018-03-19T18:39:58.536Z,16.63
2018-03-19T18:42:26.036Z,14.43
2018-03-19T18:44:53.484Z,14.77
2018-03-19T18:47:20.985Z,15.07
2018-03-19T18:49:48.443Z,13.93
2018-03-19T18:52:15.937Z,16.10
2018-03-19T18:54:43.431Z,15.47
2018-03-19T18:57:12.407Z,16.40
2018-03-19T18:59:39.876Z,15.38
2018-03-19T19:02:07.353Z,15.07
2018-03-19T19:04:34.825Z,16.10
2018-03-19T19:07:03.070Z,15.13
2018-03-19T19:09:31.296Z,17.23
2018-03-19T19:11:58.785Z,18.90
2018-03-19T19:14:26.252Z,18.63
2018-03-19T19:16:53.716Z,16.53
2018-03-19T19:19:21.186Z,17.83
2018-03-19T19:21:49.571Z,17.33
2018-03-19T19:24:17.813Z,17.73
2018-03-19T19:26:45.304Z,17.00
2018-03-19T19:29:13.538Z,16.00
2018-03-19T19:31:41.000Z,18.05
2018-03-19T19:34:08.471Z,16.63
2018-03-19T19:36:37.457Z,16.37
2018-03-19T19:39:04.929Z,17.17
2018-03-19T19:41:32.398Z,18.13
2018-03-19T19:44:00.645Z,19.47
2018-03-19T19:46:28.144Z,18.17
2018-03-19T19:48:55.577Z,18.67
2018-03-19T19:51:23.853Z,18.30
2018-03-19T19:53:51.325Z,17.00
2018-03-19T19:56:19.589Z,17.53
2018-03-19T19:58:47.060Z,18.53
2018-03-19T20:01:15.309Z,16.50
2018-03-19T20:03:42.785Z,16.80
2018-03-19T20:06:11.020Z,16.40
2018-03-19T20:08:38.531Z,17.40
2018-03-19T20:11:06.773Z,14.20
2018-03-19T20:13:34.245Z,14.80
2018-03-19T20:16:01.741Z,14.63
2018-03-19T20:18:29.209Z,16.07
2018-03-19T20:20:56.688Z,16.73
2018-03-19T20:23:24.182Z,15.33
2018-03-19T20:25:53.352Z,14.43
2018-03-19T20:28:20.824Z,13.87
2018-03-19T20:30:48.319Z,15.47
2018-03-19T20:33:16.560Z,13.67
2018-03-19T20:35:44.033Z,14.30
2018-03-19T20:38:12.344Z,13.77
2018-03-19T20:40:39.821Z,12.97
2018-03-19T20:43:07.282Z,14.10
2018-03-19T20:45:35.516Z,13.30
2018-03-19T20:48:04.040Z,15.20
2018-03-19T20:50:31.508Z,13.60
2018-03-19T20:52:58.955Z,12.20
2018-03-19T20:55:26.489Z,13.30
2018-03-19T20:57:53.924Z,14.27
2018-03-19T21:00:21.444Z,12.93
2018-03-19T21:02:48.897Z,12.43
2018-03-19T21:05:16.381Z,14.45
2018-03-19T21:07:44.614Z,13.93
2018-03-19T21:10:12.077Z,14.33
2018-03-19T21:12:39.541Z,12.97
2018-03-19T21:15:07.013Z,12.70
2018-03-19T21:17:34.465Z,13.90
2018-03-19T21:20:01.930Z,14.00
2018-03-19T21:22:29.381Z,13.62
2018-03-19T21:24:56.848Z,14.40
2018-03-19T21:27:24.301Z,12.53
2018-03-19T21:29:53.296Z,14.47
2018-03-19T21:32:22.062Z,12.37
2018-03-19T21:34:49.517Z,14.67
2018-03-19T21:37:16.973Z,12.23
2018-03-19T21:39:44.432Z,12.70
2018-03-19T21:42:11.931Z,14.40
2018-03-19T21:44:40.156Z,15.33
2018-03-19T21:47:07.607Z,13.60
2018-03-19T21:49:35.067Z,14.70
2018-03-19T21:52:02.529Z,15.07
2018-03-19T21:54:29.988Z,14.40
2018-03-19T21:56:57.448Z,14.30
2018-03-19T21:59:25.459Z,14.53
2018-03-19T22:01:52.889Z,15.10
2018-03-19T22:04:20.352Z,15.60
2018-03-19T22:06:49.324Z,17.77
2018-03-19T22:09:16.780Z,15.00
2018-03-19T22:11:44.241Z,14.50
2018-03-19T22:14:11.702Z,17.57
2018-03-19T22:16:39.166Z,12.50
2018-03-19T22:19:06.624Z,13.90
2018-03-19T22:21:34.079Z,14.30
2018-03-19T22:24:01.538Z,13.17
2018-03-19T22:26:29.009Z,14.97
2018-03-19T22:28:57.212Z,14.00
2018-03-19T22:31:24.670Z,13.70
2018-03-19T22:33:52.914Z,13.70
2018-03-19T22:36:20.404Z,12.80
2018-03-19T22:38:48.621Z,14.10
2018-03-19T22:41:16.093Z,14.03
2018-03-19T22:43:43.550Z,14.83
2018-03-19T22:46:11.030Z,14.10
2018-03-19T22:48:38.484Z,14.50
2018-03-19T22:51:05.969Z,23.80
2018-03-19T22:53:34.197Z,15.80
2018-03-19T22:56:01.673Z,19.60
2018-03-19T22:58:29.136Z,20.80
2018-03-19T23:00:57.591Z,17.27
2018-03-19T23:03:25.047Z,22.50
2018-03-19T23:05:52.504Z,19.77
2018-03-19T23:08:19.973Z,19.23
2018-03-19T23:10:48.214Z,26.40
2018-03-19T23:13:15.672Z,20.30
2018-03-19T23:15:43.132Z,17.70
2018-03-19T23:18:10.593Z,19.00
2018-03-19T23:20:38.069Z,19.10
2018-03-19T23:23:06.317Z,16.27
2018-03-19T23:25:33.773Z,15.43
2018-03-19T23:28:01.223Z,14.80
2018-03-19T23:30:28.679Z,16.80
2018-03-19T23:32:56.128Z,15.47
2018-03-19T23:35:23.594Z,16.15
2018-03-19T23:37:51.054Z,16.80
2018-03-19T23:40:18.517Z,15.37
2018-03-19T23:42:46.003Z,14.87
2018-03-19T23:45:13.476Z,15.67
2018-03-19T23:47:40.937Z,14.63
2018-03-19T23:50:08.409Z,14.30
2018-03-19T23:52:36.648Z,15.70
2018-03-19T23:55:04.109Z,15.70
2018-03-19T23:57:31.582Z,15.60
2018-03-19T23:59:59.039Z,14.80
